Time;durP1;ratioP1;P1;durP2;ratioP2;P2;SDS_P1;SDS_P2;PMS_P1;PMS_P2;Temp;Humidity;BMP_temperature;BMP_pressure;BME280_temperature;BME280_humidity;BME280_pressure;Samples;Min_cycle;Max_cycle;Signal;HPM_P1;HPM_P2
2021/03/26 00:02:51;;;;;;;41.50;26.55;;;23.20;31.80;;;;;;6097743;28;83322;-64
2021/03/26 00:05:52;;;;;;;45.80;28.05;;;23.20;31.80;;;;;;6102885;28;83466;-65
2021/03/26 00:08:52;;;;;;;49.63;29.65;;;23.20;31.60;;;;;;6099317;28;84462;-65
2021/03/26 00:11:53;;;;;;;43.03;27.52;;;23.20;31.60;;;;;;6100767;28;88494;-66
2021/03/26 00:14:53;;;;;;;41.70;27.73;;;23.20;31.40;;;;;;6099862;28;83456;-65
2021/03/26 00:17:54;;;;;;;44.55;28.20;;;23.20;31.50;;;;;;6101138;28;83520;-65
2021/03/26 00:20:55;;;;;;;45.53;28.20;;;23.20;31.30;;;;;;6102116;28;84577;-66
2021/03/26 00:23:55;;;;;;;43.05;26.85;;;23.20;31.20;;;;;;6101229;28;83274;-66
2021/03/26 00:26:56;;;;;;;47.85;28.15;;;23.20;31.60;;;;;;6101275;28;84095;-64
2021/03/26 00:29:56;;;;;;;47.38;27.95;;;23.10;31.70;;;;;;6082174;28;83753;-64
2021/03/26 00:32:57;;;;;;;46.72;27.88;;;23.20;31.80;;;;;;6100271;28;84286;-66
2021/03/26 00:35:57;;;;;;;42.22;27.30;;;23.10;31.30;;;;;;6094895;28;83317;-65
2021/03/26 00:38:58;;;;;;;46.92;27.60;;;23.10;31.10;;;;;;6101091;28;85888;-65
2021/03/26 00:41:58;;;;;;;44.22;27.98;;;23.10;31.70;;;;;;6101000;28;83244;-66
2021/03/26 00:44:59;;;;;;;44.85;27.02;;;23.10;31.80;;;;;;6094163;28;85717;-66
2021/03/26 00:48:00;;;;;;;47.13;27.33;;;23.10;31.70;;;;;;6086579;28;85972;-66
2021/03/26 00:51:00;;;;;;;44.20;26.67;;;23.10;31.10;;;;;;6101112;28;85689;-65
2021/03/26 00:54:01;;;;;;;43.63;26.38;;;23.10;31.20;;;;;;6092912;28;83635;-66
2021/03/26 00:57:02;;;;;;;44.78;28.10;;;23.10;31.80;;;;;;6076632;28;86221;-65
2021/03/26 01:00:02;;;;;;;42.22;27.05;;;23.10;31.40;;;;;;6081280;28;85798;-66
2021/03/26 01:03:05;;;;;;;42.40;26.08;;;23.10;31.60;;;;;;6069525;28;84911;-66
2021/03/26 01:06:05;;;;;;;44.47;26.90;;;23.10;31.40;;;;;;6062002;28;84938;-66
2021/03/26 01:09:08;;;;;;;48.35;29.77;;;23.10;31.50;;;;;;6082218;28;85418;-66
2021/03/26 01:12:09;;;;;;;41.25;26.25;;;23.10;31.70;;;;;;6083253;28;85864;-66
2021/03/26 01:15:09;;;;;;;42.63;27.15;;;23.10;31.90;;;;;;6099765;28;86010;-66
2021/03/26 01:18:11;;;;;;;44.95;26.77;;;23.10;31.40;;;;;;6087405;28;85925;-64
2021/03/26 01:21:12;;;;;;;45.10;27.40;;;23.10;31.60;;;;;;6100677;28;82929;-65
2021/03/26 01:24:14;;;;;;;52.08;28.98;;;23.10;31.50;;;;;;6080122;28;83234;-65
2021/03/26 01:27:17;;;;;;;44.10;28.25;;;23.10;31.00;;;;;;6099611;28;86453;-65
2021/03/26 01:30:21;;;;;;;45.10;27.92;;;23.10;31.70;;;;;;6102071;28;83250;-63
2021/03/26 01:33:21;;;;;;;44.72;26.83;;;23.00;31.70;;;;;;6101026;28;84086;-65
2021/03/26 01:36:22;;;;;;;39.20;25.70;;;23.10;31.10;;;;;;6084105;28;86039;-65
2021/03/26 01:39:23;;;;;;;40.10;26.67;;;23.10;31.30;;;;;;6098841;28;84068;-64
2021/03/26 01:42:29;;;;;;;41.17;26.40;;;23.00;31.80;;;;;;6082003;28;86228;-65
2021/03/26 01:45:30;;;;;;;44.70;26.25;;;23.00;31.20;;;;;;6091117;28;85255;-65
2021/03/26 01:48:31;;;;;;;40.80;25.52;;;23.10;31.20;;;;;;6100348;28;83603;-65
2021/03/26 01:51:31;;;;;;;44.42;25.40;;;23.10;31.00;;;;;;6098818;28;85248;-64
2021/03/26 01:54:32;;;;;;;39.75;25.52;;;23.00;31.60;;;;;;6099865;28;83165;-64
2021/03/26 01:57:35;;;;;;;42.15;26.50;;;23.00;31.20;;;;;;6103238;28;84114;-65
2021/03/26 02:00:39;;;;;;;42.83;26.08;;;23.00;30.80;;;;;;6075147;28;84066;-64
2021/03/26 02:03:40;;;;;;;35.38;24.27;;;23.00;31.10;;;;;;6074505;28;85976;-64
2021/03/26 02:06:41;;;;;;;37.17;24.38;;;23.00;31.30;;;;;;6090173;28;85927;-67
2021/03/26 02:09:42;;;;;;;40.42;24.88;;;23.00;31.20;;;;;;6070836;28;84376;-65
2021/03/26 02:12:42;;;;;;;38.88;24.13;;;23.00;31.20;;;;;;6075207;28;84630;-65
2021/03/26 02:15:48;;;;;;;37.63;22.95;;;23.00;31.50;;;;;;6092118;28;85875;-65
2021/03/26 02:18:53;;;;;;;42.17;25.98;;;23.00;31.70;;;;;;6077107;28;86706;-65
2021/03/26 02:21:54;;;;;;;41.38;24.75;;;23.00;31.70;;;;;;6079990;28;83129;-65
2021/03/26 02:24:55;;;;;;;43.00;25.38;;;23.00;31.10;;;;;;6076852;28;84192;-66
2021/03/26 02:27:56;;;;;;;37.00;23.00;;;23.00;31.60;;;;;;6078690;28;86223;-65
2021/03/26 02:30:56;;;;;;;35.60;23.92;;;23.00;31.50;;;;;;6077357;28;86185;-66
2021/03/26 02:33:57;;;;;;;39.80;24.08;;;23.00;31.40;;;;;;6094642;28;86032;-66
2021/03/26 02:36:58;;;;;;;40.15;24.85;;;23.00;31.40;;;;;;6094935;28;85729;-66
2021/03/26 02:39:59;;;;;;;42.63;24.75;;;23.00;31.00;;;;;;6078305;28;87812;-66
2021/03/26 02:43:01;;;;;;;38.70;23.55;;;23.00;31.30;;;;;;6077309;28;85860;-65
2021/03/26 02:46:02;;;;;;;38.20;24.00;;;23.00;30.80;;;;;;6094914;28;86509;-66
2021/03/26 02:49:02;;;;;;;36.63;24.02;;;23.00;31.20;;;;;;6080383;28;83435;-66
2021/03/26 02:52:03;;;;;;;36.85;23.90;;;22.90;30.80;;;;;;6074327;28;85536;-65
2021/03/26 02:55:04;;;;;;;40.72;24.92;;;23.00;31.00;;;;;;6078229;28;84365;-65
2021/03/26 02:58:04;;;;;;;40.78;25.08;;;22.90;30.80;;;;;;6072940;28;83337;-65
2021/03/26 03:01:06;;;;;;;39.65;24.70;;;22.90;30.90;;;;;;6098979;28;85469;-65
2021/03/26 03:04:07;;;;;;;41.15;24.23;;;22.90;30.50;;;;;;6104340;28;83407;-64
2021/03/26 03:07:08;;;;;;;36.33;23.13;;;23.00;30.80;;;;;;6083087;28;85432;-65
2021/03/26 03:10:39;;;;;;;37.83;23.02;;;23.00;30.90;;;;;;6083448;28;84851;-65
2021/03/26 03:13:40;;;;;;;40.95;24.48;;;22.90;30.70;;;;;;6100414;28;85278;-65
2021/03/26 03:16:41;;;;;;;40.92;24.98;;;22.90;30.90;;;;;;6103700;28;83784;-65
2021/03/26 03:19:41;;;;;;;36.17;23.38;;;22.90;30.90;;;;;;6096639;28;83623;-64
2021/03/26 03:22:43;;;;;;;35.33;22.80;;;22.90;30.90;;;;;;6076649;28;84387;-65
2021/03/26 03:25:45;;;;;;;36.85;22.33;;;22.90;31.00;;;;;;6086255;28;85909;-65
2021/03/26 03:28:45;;;;;;;37.22;22.30;;;22.90;30.90;;;;;;6085005;28;85992;-66
2021/03/26 03:32:15;;;;;;;34.00;20.88;;;22.90;31.20;;;;;;6093093;28;83618;-65
2021/03/26 03:35:17;;;;;;;36.92;22.52;;;22.90;31.30;;;;;;6084543;28;84184;-65
2021/03/26 03:38:18;;;;;;;33.83;21.13;;;22.90;31.10;;;;;;6099774;28;85616;-66
2021/03/26 03:41:19;;;;;;;33.05;21.05;;;22.90;31.20;;;;;;6102979;28;83488;-65
2021/03/26 03:44:20;;;;;;;37.22;21.48;;;22.90;30.90;;;;;;6102836;28;83526;-65
2021/03/26 03:47:21;;;;;;;36.20;21.02;;;22.90;30.80;;;;;;6085898;28;86411;-65
2021/03/26 03:50:37;;;;;;;36.80;21.55;;;22.90;31.30;;;;;;6080429;28;85007;-65
2021/03/26 03:53:42;;;;;;;33.03;21.42;;;22.90;31.60;;;;;;6092931;28;85432;-65
2021/03/26 03:56:51;;;;;;;33.17;21.80;;;22.90;31.60;;;;;;6099472;28;86233;-64
2021/03/26 03:59:52;;;;;;;36.05;21.77;;;22.90;31.10;;;;;;6099122;28;85271;-64
2021/03/26 04:02:59;;;;;;;31.13;20.35;;;22.90;31.70;;;;;;6100841;28;88188;-64
2021/03/26 04:06:00;;;;;;;33.63;21.10;;;22.90;31.20;;;;;;6084626;28;85947;-65
2021/03/26 04:09:03;;;;;;;33.67;19.48;;;22.90;30.70;;;;;;6079903;28;85147;-65
2021/03/26 04:12:03;;;;;;;30.73;20.60;;;22.90;31.80;;;;;;6101841;28;83270;-64
2021/03/26 04:15:23;;;;;;;32.42;20.67;;;22.90;31.20;;;;;;6101953;28;83995;-65
2021/03/26 04:18:29;;;;;;;;;;;22.90;30.30;;;;;;6077357;28;86905;-64
2021/03/26 04:21:48;;;;;;;32.13;20.50;;;22.90;30.10;;;;;;6110150;28;82578;-64
2021/03/26 04:24:59;;;;;;;35.63;21.50;;;23.00;30.00;;;;;;6102260;28;83302;-64
2021/03/26 04:28:00;;;;;;;34.53;21.85;;;23.00;29.90;;;;;;6100905;28;83551;-64
2021/03/26 04:31:11;;;;;;;31.80;21.50;;;23.00;29.80;;;;;;6099471;28;85024;-64
2021/03/26 04:34:30;;;;;;;39.00;23.02;;;23.00;29.70;;;;;;6098163;28;84232;-65
2021/03/26 04:37:31;;;;;;;35.13;21.90;;;23.00;29.60;;;;;;6081752;28;86155;-64
2021/03/26 04:40:35;;;;;;;35.90;22.35;;;23.10;29.60;;;;;;6078558;28;84353;-65
2021/03/26 04:43:36;;;;;;;30.90;20.58;;;23.10;29.50;;;;;;6097497;28;84196;-65
2021/03/26 04:46:44;;;;;;;33.65;21.20;;;23.10;29.50;;;;;;6083128;28;86103;-65
2021/03/26 04:49:52;;;;;;;36.25;21.50;;;23.10;29.50;;;;;;6098289;28;85115;-65
2021/03/26 04:52:53;;;;;;;35.13;21.63;;;23.20;29.40;;;;;;6056413;28;86284;-65
2021/03/26 04:55:53;;;;;;;31.38;21.33;;;23.20;29.30;;;;;;6083884;28;85610;-65
2021/03/26 04:59:32;;;;;;;35.13;22.30;;;23.20;29.30;;;;;;6082733;28;84678;-65
2021/03/26 05:02:41;;;;;;;38.13;21.83;;;23.20;29.30;;;;;;6085785;28;84579;-65
2021/03/26 05:05:42;;;;;;;35.58;22.77;;;23.20;29.20;;;;;;6083870;28;86382;-66
2021/03/26 05:08:52;;;;;;;36.15;22.60;;;23.20;29.30;;;;;;6100047;28;84781;-65
2021/03/26 05:12:13;;;;;;;32.63;21.10;;;23.30;29.30;;;;;;6080729;28;87706;-65
2021/03/26 05:15:14;;;;;;;34.90;22.75;;;23.30;29.20;;;;;;6083949;28;85473;-65
2021/03/26 05:18:23;;;;;;;40.78;23.80;;;23.30;29.10;;;;;;6083611;28;85825;-66
2021/03/26 05:21:24;;;;;;;32.70;21.80;;;23.30;29.00;;;;;;6105226;28;85464;-66
2021/03/26 05:24:48;;;;;;;35.40;22.83;;;23.30;29.00;;;;;;6079030;28;85578;-66
2021/03/26 05:28:18;;;;;;;33.78;19.20;;;23.30;29.00;;;;;;6085603;28;82942;-64
2021/03/26 05:31:18;;;;;;;24.77;16.40;;;23.30;29.60;;;;;;6084222;28;86392;-65
2021/03/26 05:34:19;;;;;;;25.77;15.50;;;23.30;29.60;;;;;;6081356;28;85369;-68
2021/03/26 05:37:20;;;;;;;23.10;13.73;;;23.20;29.80;;;;;;6083663;28;86045;-65
2021/03/26 05:40:39;;;;;;;19.77;12.25;;;23.20;30.00;;;;;;6094143;28;83484;-67
2021/03/26 05:43:58;;;;;;;21.08;12.52;;;23.20;30.20;;;;;;6101878;28;83177;-67
2021/03/26 05:47:07;;;;;;;16.88;10.93;;;23.20;30.40;;;;;;6097722;28;86412;-66
2021/03/26 05:50:17;;;;;;;16.88;11.15;;;23.20;30.40;;;;;;6082084;28;85254;-67
2021/03/26 05:53:18;;;;;;;18.38;10.70;;;23.20;30.40;;;;;;6096761;28;85574;-66
2021/03/26 05:56:37;;;;;;;17.10;10.00;;;23.20;30.40;;;;;;6104640;28;83486;-67
2021/03/26 05:59:42;;;;;;;16.33;10.05;;;23.20;30.30;;;;;;6102293;28;85866;-67
2021/03/26 06:02:44;;;;;;;15.63;9.68;;;23.20;30.40;;;;;;6103504;28;85205;-67
2021/03/26 06:06:04;;;;;;;12.13;9.32;;;23.20;30.40;;;;;;6105602;28;88050;-66
2021/03/26 06:09:23;;;;;;;15.45;9.90;;;23.20;30.80;;;;;;6104927;28;80557;-67
2021/03/26 06:12:42;;;;;;;15.68;9.82;;;23.20;31.20;;;;;;6105353;28;80144;-67
2021/03/26 06:16:01;;;;;;;13.80;8.75;;;23.20;31.90;;;;;;6106148;28;81747;-67
2021/03/26 06:19:20;;;;;;;15.50;8.57;;;23.20;32.20;;;;;;6105762;28;80996;-67
2021/03/26 06:22:39;;;;;;;13.85;9.00;;;23.20;32.70;;;;;;6102970;28;80541;-67
2021/03/26 06:26:02;;;;;;;15.45;9.32;;;23.20;32.80;;;;;;6101155;28;80279;-66
2021/03/26 06:29:03;;;;;;;13.45;8.80;;;23.20;32.80;;;;;;6089703;28;83495;-67
2021/03/26 06:32:04;;;;;;;15.50;9.00;;;23.20;32.70;;;;;;6103092;28;81653;-67
2021/03/26 06:35:16;;;;;;;12.70;8.85;;;23.20;33.10;;;;;;6105502;28;80774;-67
2021/03/26 06:38:17;;;;;;;13.93;8.75;;;23.30;33.60;;;;;;6106559;28;80743;-66
2021/03/26 06:41:17;;;;;;;11.18;7.95;;;23.20;33.90;;;;;;6098514;28;80872;-66
2021/03/26 06:44:18;;;;;;;12.35;8.27;;;23.20;34.20;;;;;;6101707;28;80915;-66
2021/03/26 06:47:18;;;;;;;13.98;9.13;;;23.20;34.30;;;;;;6096555;28;80957;-66
2021/03/26 06:50:19;;;;;;;15.65;9.07;;;23.30;34.40;;;;;;6105157;28;80896;-67
2021/03/26 06:53:19;;;;;;;15.75;9.70;;;23.20;34.60;;;;;;6105487;28;80887;-67
2021/03/26 06:56:20;;;;;;;16.55;10.18;;;23.20;35.40;;;;;;6077691;28;80386;-66
2021/03/26 06:59:21;;;;;;;13.07;9.15;;;23.30;34.90;;;;;;6101725;28;83238;-66
2021/03/26 07:02:22;;;;;;;13.00;8.77;;;23.30;34.70;;;;;;6107321;28;82896;-63
2021/03/26 07:05:22;;;;;;;11.77;8.77;;;23.30;34.60;;;;;;6105638;28;81116;-68
2021/03/26 07:08:23;;;;;;;15.63;8.93;;;23.30;34.40;;;;;;6107298;28;81046;-67
2021/03/26 07:11:23;;;;;;;12.07;9.05;;;23.20;34.10;;;;;;6103795;28;80772;-67
2021/03/26 07:14:24;;;;;;;12.20;8.75;;;23.20;34.00;;;;;;6088083;28;81742;-63
2021/03/26 07:17:24;;;;;;;12.70;9.20;;;23.30;33.90;;;;;;6102957;28;81090;-65
2021/03/26 07:20:25;;;;;;;15.43;8.93;;;23.20;33.60;;;;;;6105229;28;81128;-65
2021/03/26 07:23:26;;;;;;;13.45;8.05;;;23.20;33.50;;;;;;6106156;28;81188;-66
2021/03/26 07:26:26;;;;;;;12.75;8.77;;;23.20;33.20;;;;;;6106948;28;81573;-65
2021/03/26 07:29:30;;;;;;;12.93;8.55;;;23.20;33.00;;;;;;6108164;28;81346;-65
2021/03/26 07:32:31;;;;;;;13.95;8.45;;;23.20;33.00;;;;;;6106589;28;80853;-66
2021/03/26 07:35:31;;;;;;;11.20;7.28;;;23.20;33.00;;;;;;6106914;28;81784;-69
2021/03/26 07:38:32;;;;;;;11.88;8.10;;;23.30;32.70;;;;;;6107653;28;80788;-65
2021/03/26 07:41:32;;;;;;;11.40;7.32;;;23.20;32.80;;;;;;6109822;28;80357;-64
2021/03/26 07:44:33;;;;;;;12.85;7.85;;;23.20;32.80;;;;;;6106398;28;80797;-66
2021/03/26 07:47:34;;;;;;;13.25;8.30;;;23.20;33.40;;;;;;6103941;28;81800;-64
2021/03/26 07:50:34;;;;;;;16.48;8.07;;;23.30;34.20;;;;;;6104243;28;80420;-65
2021/03/26 07:53:35;;;;;;;13.57;7.70;;;23.30;34.10;;;;;;6103586;28;80904;-65
2021/03/26 07:56:36;;;;;;;13.15;8.35;;;23.30;34.50;;;;;;6104469;28;80420;-67
2021/03/26 07:59:37;;;;;;;12.98;8.25;;;23.30;35.50;;;;;;6104218;28;82078;-65
2021/03/26 08:02:37;;;;;;;12.65;7.95;;;23.40;35.50;;;;;;6102378;28;80688;-65
2021/03/26 08:05:42;;;;;;;13.43;7.57;;;23.40;36.10;;;;;;6105091;28;81088;-66
2021/03/26 08:08:43;;;;;;;10.65;7.18;;;23.40;36.60;;;;;;6100829;28;80111;-65
2021/03/26 08:11:44;;;;;;;10.13;6.75;;;23.40;36.00;;;;;;6104057;28;80695;-64
2021/03/26 08:14:44;;;;;;;17.30;7.70;;;23.50;35.70;;;;;;6086603;28;82276;-66
2021/03/26 08:17:45;;;;;;;9.68;6.32;;;23.40;35.50;;;;;;6102504;28;80651;-67
2021/03/26 08:20:45;;;;;;;14.10;7.10;;;23.40;35.40;;;;;;6105592;28;80422;-67
2021/03/26 08:23:46;;;;;;;12.93;7.38;;;23.40;35.30;;;;;;6106677;28;85804;-66
2021/03/26 08:26:47;;;;;;;9.85;6.53;;;23.40;35.20;;;;;;6100488;28;81571;-65
2021/03/26 08:29:47;;;;;;;12.50;7.15;;;23.40;35.10;;;;;;6104616;28;82426;-66
2021/03/26 08:32:48;;;;;;;10.30;6.70;;;23.40;35.10;;;;;;6102134;28;81331;-64
2021/03/26 08:35:48;;;;;;;9.27;6.20;;;23.40;35.10;;;;;;6104040;28;81403;-65
2021/03/26 08:38:49;;;;;;;10.55;6.75;;;23.40;34.90;;;;;;6103991;28;80569;-66
2021/03/26 08:41:49;;;;;;;9.80;6.65;;;23.40;34.80;;;;;;6088622;28;81635;-63
2021/03/26 08:44:50;;;;;;;10.15;6.55;;;23.40;34.70;;;;;;6105235;28;81037;-64
2021/03/26 08:47:51;;;;;;;10.23;7.40;;;23.40;34.80;;;;;;6103606;28;80546;-65
2021/03/26 08:50:51;;;;;;;21.38;9.98;;;23.40;34.90;;;;;;6100283;28;80732;-66
2021/03/26 08:53:52;;;;;;;27.00;13.38;;;23.50;34.80;;;;;;6084816;28;83051;-64
2021/03/26 08:56:52;;;;;;;226.13;87.55;;;23.50;35.10;;;;;;6102574;28;82801;-63
2021/03/26 08:59:53;;;;;;;357.05;135.05;;;23.50;35.30;;;;;;6099427;28;83394;-63
2021/03/26 09:02:53;;;;;;;357.65;131.40;;;23.50;35.60;;;;;;6099702;28;86277;-65
2021/03/26 09:05:54;;;;;;;344.08;132.32;;;23.60;35.50;;;;;;6100418;28;86076;-64
2021/03/26 09:08:54;;;;;;;417.40;159.15;;;23.60;35.50;;;;;;6098310;28;85513;-65
2021/03/26 09:11:55;;;;;;;490.15;191.50;;;23.60;35.60;;;;;;6097268;28;86909;-64
2021/03/26 09:14:56;;;;;;;405.35;146.23;;;23.70;35.60;;;;;;6098657;28;86204;-65
2021/03/26 09:17:56;;;;;;;304.17;115.30;;;23.70;35.50;;;;;;6097088;28;88885;-66
2021/03/26 09:20:57;;;;;;;230.07;88.25;;;23.70;35.50;;;;;;6098437;28;85356;-64
2021/03/26 09:23:57;;;;;;;187.55;74.03;;;23.70;35.30;;;;;;6102627;28;85428;-64
2021/03/26 09:26:58;;;;;;;160.70;62.25;;;23.70;35.10;;;;;;6099812;28;83614;-64
2021/03/26 09:29:58;;;;;;;130.82;51.92;;;23.70;34.90;;;;;;6078579;28;83507;-64
2021/03/26 09:32:59;;;;;;;118.88;47.35;;;23.60;34.70;;;;;;6104144;28;87618;-66
2021/03/26 09:36:03;;;;;;;92.70;38.58;;;23.60;34.80;;;;;;6104044;28;84193;-65
2021/03/26 09:39:03;;;;;;;86.13;35.95;;;23.60;34.60;;;;;;6106228;28;83256;-64
2021/03/26 09:42:08;;;;;;;73.85;31.48;;;23.60;34.50;;;;;;6111933;28;89529;-64
2021/03/26 09:45:09;;;;;;;66.47;29.50;;;23.60;34.60;;;;;;6100711;28;86477;-64
2021/03/26 09:48:09;;;;;;;59.97;28.48;;;23.70;35.30;;;;;;6104059;28;86245;-64
2021/03/26 09:51:10;;;;;;;61.67;26.85;;;23.70;34.50;;;;;;6086697;28;83241;-64
2021/03/26 09:54:10;;;;;;;55.60;24.60;;;23.70;34.30;;;;;;6104976;28;83413;-64
2021/03/26 09:57:11;;;;;;;46.10;23.02;;;23.70;34.20;;;;;;6103031;28;86232;-64
2021/03/26 10:00:11;;;;;;;38.85;21.65;;;23.70;34.00;;;;;;6078932;28;84598;-64
2021/03/26 10:03:15;;;;;;;36.90;19.60;;;23.70;33.90;;;;;;6092127;28;84131;-66
2021/03/26 10:06:15;;;;;;;30.95;18.30;;;23.80;33.80;;;;;;6105102;28;83477;-65
2021/03/26 10:09:28;;;;;;;36.25;18.98;;;23.70;33.60;;;;;;6103923;28;83621;-65
2021/03/26 10:12:28;;;;;;;32.50;18.85;;;23.70;33.40;;;;;;6103245;28;85977;-65
2021/03/26 10:15:29;;;;;;;33.00;17.88;;;23.70;33.00;;;;;;6103648;28;86437;-65
2021/03/26 10:18:32;;;;;;;30.10;18.10;;;23.80;32.70;;;;;;6104473;28;83125;-65
2021/03/26 10:21:32;;;;;;;30.88;18.13;;;23.70;32.30;;;;;;6104439;28;84303;-64
2021/03/26 10:24:33;;;;;;;29.35;18.13;;;23.70;32.10;;;;;;6103660;28;83970;-66
2021/03/26 10:27:34;;;;;;;28.25;16.00;;;23.70;32.10;;;;;;6095459;28;83491;-65
2021/03/26 10:30:35;;;;;;;25.00;14.68;;;23.70;32.60;;;;;;6103480;28;83516;-65
2021/03/26 10:33:36;;;;;;;25.02;13.93;;;23.80;32.80;;;;;;6104292;28;83377;-66
2021/03/26 10:36:36;;;;;;;21.95;14.35;;;23.70;33.00;;;;;;6103153;28;82960;-66
2021/03/26 10:39:37;;;;;;;30.90;18.88;;;23.80;33.00;;;;;;6104211;28;83503;-66
2021/03/26 10:42:39;;;;;;;32.33;19.02;;;23.90;32.70;;;;;;6104607;28;83371;-66
2021/03/26 10:45:40;;;;;;;33.75;20.75;;;23.80;32.10;;;;;;6088241;28;84939;-66
2021/03/26 10:48:43;;;;;;;33.25;20.70;;;23.80;32.10;;;;;;6102469;28;83827;-66
2021/03/26 10:51:44;;;;;;;45.42;20.75;;;23.80;32.10;;;;;;6098886;28;83137;-66
2021/03/26 10:54:45;;;;;;;30.92;18.85;;;23.80;32.30;;;;;;6104163;28;83402;-66
2021/03/26 10:57:45;;;;;;;29.15;18.55;;;23.80;32.50;;;;;;6101465;28;83036;-66
2021/03/26 11:00:46;;;;;;;35.80;21.55;;;23.80;32.30;;;;;;6101763;28;86535;-66
2021/03/26 11:03:47;;;;;;;32.25;21.27;;;23.80;32.10;;;;;;6102016;28;83443;-66
2021/03/26 11:06:47;;;;;;;35.13;20.85;;;23.80;32.50;;;;;;6101318;28;83266;-66
2021/03/26 11:09:48;;;;;;;31.58;18.33;;;23.80;32.70;;;;;;6098291;28;84407;-66
2021/03/26 11:12:48;;;;;;;25.33;16.92;;;23.80;32.40;;;;;;6103088;28;83133;-66
2021/03/26 11:15:49;;;;;;;28.02;18.65;;;23.80;32.50;;;;;;6102638;28;86727;-66
2021/03/26 11:18:50;;;;;;;27.85;17.77;;;23.80;32.70;;;;;;6102597;28;83422;-66
2021/03/26 11:21:50;;;;;;;28.67;17.63;;;23.80;32.80;;;;;;6103060;28;84701;-65
2021/03/26 11:24:51;;;;;;;24.75;16.52;;;23.80;32.80;;;;;;6099198;28;83634;-66
2021/03/26 11:27:51;;;;;;;24.52;16.40;;;23.80;32.90;;;;;;6103496;28;83187;-66
2021/03/26 11:30:52;;;;;;;26.67;16.17;;;23.90;32.50;;;;;;6104088;28;83468;-66
2021/03/26 11:33:53;;;;;;;25.70;16.02;;;23.80;32.10;;;;;;6103002;28;83162;-66
2021/03/26 11:36:53;;;;;;;26.15;15.63;;;23.80;32.00;;;;;;6102659;28;83193;-67
2021/03/26 11:39:54;;;;;;;22.20;14.45;;;23.80;31.70;;;;;;6094404;28;85327;-66
2021/03/26 11:42:54;;;;;;;23.33;13.63;;;23.80;31.60;;;;;;6102532;28;83218;-66
2021/03/26 11:45:55;;;;;;;23.48;14.80;;;23.80;32.10;;;;;;6103488;28;82920;-66
2021/03/26 11:48:56;;;;;;;24.25;13.73;;;23.80;32.30;;;;;;6102276;28;83833;-66
2021/03/26 11:51:56;;;;;;;20.13;13.45;;;23.90;32.80;;;;;;6101292;28;83451;-66
2021/03/26 11:54:57;;;;;;;19.30;13.23;;;23.80;32.50;;;;;;6097734;28;83330;-66
2021/03/26 11:57:57;;;;;;;21.40;13.45;;;23.80;32.10;;;;;;6101774;28;83736;-65
2021/03/26 12:01:02;;;;;;;25.60;14.90;;;23.80;32.00;;;;;;6101962;28;83650;-66
2021/03/26 12:04:03;;;;;;;23.73;14.95;;;23.90;31.60;;;;;;6100037;28;84193;-66
2021/03/26 12:07:04;;;;;;;24.85;15.00;;;23.80;31.30;;;;;;6082139;28;86408;-67
2021/03/26 12:10:06;;;;;;;30.15;16.17;;;23.80;31.20;;;;;;6096611;28;83309;-66
2021/03/26 12:13:06;;;;;;;50.38;21.58;;;23.90;31.10;;;;;;6102427;28;83463;-66
2021/03/26 12:16:07;;;;;;;44.65;22.50;;;23.90;31.60;;;;;;6098321;28;83300;-65
2021/03/26 12:19:10;;;;;;;34.55;20.67;;;23.90;31.00;;;;;;6101871;28;83798;-66
2021/03/26 12:22:10;;;;;;;31.65;21.13;;;23.80;30.40;;;;;;6102050;28;82914;-68
2021/03/26 12:25:11;;;;;;;34.67;20.63;;;23.80;30.50;;;;;;6105724;28;84269;-66
2021/03/26 12:28:11;;;;;;;34.78;20.90;;;23.80;30.00;;;;;;6102722;28;83476;-66
2021/03/26 12:31:12;;;;;;;33.92;17.80;;;23.80;30.00;;;;;;6101382;28;83694;-66
2021/03/26 12:34:12;;;;;;;27.42;18.23;;;23.80;30.90;;;;;;6102195;28;82885;-67
2021/03/26 12:37:13;;;;;;;25.63;13.45;;;23.80;30.70;;;;;;6098996;28;84199;-64
2021/03/26 12:40:13;;;;;;;14.82;9.43;;;23.90;31.10;;;;;;6097250;28;82674;-67
2021/03/26 12:43:14;;;;;;;12.60;8.23;;;23.80;31.80;;;;;;6095010;28;84487;-66
2021/03/26 12:46:14;;;;;;;13.45;8.40;;;23.80;32.80;;;;;;6103709;28;80794;-66
2021/03/26 12:49:15;;;;;;;10.80;6.78;;;23.90;32.80;;;;;;6103652;28;81624;-66
2021/03/26 12:52:15;;;;;;;7.82;5.50;;;23.90;33.30;;;;;;6078757;28;83169;-65
2021/03/26 12:55:16;;;;;;;8.52;5.40;;;23.90;33.70;;;;;;6103374;28;80314;-66
2021/03/26 12:58:17;;;;;;;11.73;5.82;;;24.00;34.40;;;;;;6101930;28;81756;-65
2021/03/26 13:01:18;;;;;;;10.82;5.18;;;23.90;34.80;;;;;;6103726;28;80851;-64
2021/03/26 13:04:18;;;;;;;9.10;4.40;;;23.90;34.90;;;;;;6101834;28;80659;-66
2021/03/26 13:07:19;;;;;;;6.40;4.35;;;23.90;35.40;;;;;;6104137;28;80447;-67
2021/03/26 13:10:19;;;;;;;5.68;4.72;;;24.00;35.30;;;;;;6104040;28;83247;-68
2021/03/26 13:13:20;;;;;;;6.82;4.75;;;24.00;34.90;;;;;;6104432;28;81557;-67
2021/03/26 13:16:20;;;;;;;6.63;4.63;;;24.10;35.60;;;;;;6106191;28;80372;-66
2021/03/26 13:19:21;;;;;;;7.43;4.35;;;24.20;35.20;;;;;;6105606;28;80921;-67
2021/03/26 13:22:22;;;;;;;6.07;4.40;;;24.10;34.80;;;;;;6101154;28;80239;-67
2021/03/26 13:25:22;;;;;;;5.80;4.53;;;24.00;34.80;;;;;;6085769;28;80575;-67
2021/03/26 13:28:23;;;;;;;6.03;4.43;;;24.10;35.40;;;;;;6103314;28;81210;-66
2021/03/26 13:31:23;;;;;;;6.70;4.15;;;24.20;35.60;;;;;;6096080;28;81848;-66
2021/03/26 13:34:24;;;;;;;5.13;3.85;;;24.10;35.10;;;;;;6097815;28;82922;-65
2021/03/26 13:37:24;;;;;;;6.65;3.47;;;24.10;35.50;;;;;;6100611;28;80924;-65
2021/03/26 13:40:25;;;;;;;5.75;3.80;;;24.00;35.50;;;;;;6096080;28;81076;-66
2021/03/26 13:43:26;;;;;;;4.20;3.50;;;24.00;35.50;;;;;;6100443;28;80806;-66
2021/03/26 13:46:27;;;;;;;5.43;4.10;;;24.10;36.20;;;;;;6081410;28;83707;-67
2021/03/26 13:49:27;;;;;;;6.00;4.32;;;24.00;35.50;;;;;;6097574;28;82179;-67
2021/03/26 13:52:28;;;;;;;5.97;4.60;;;24.10;35.80;;;;;;6098316;28;81215;-67
2021/03/26 13:55:29;;;;;;;6.05;3.92;;;24.10;35.70;;;;;;6099326;28;80905;-67
2021/03/26 13:58:30;;;;;;;4.90;4.18;;;24.10;36.30;;;;;;6102142;28;85367;-67
2021/03/26 14:01:30;;;;;;;4.70;3.90;;;24.10;35.90;;;;;;6099184;28;80884;-67
2021/03/26 14:04:31;;;;;;;7.40;4.35;;;24.10;36.00;;;;;;6093487;28;80257;-66
2021/03/26 14:07:31;;;;;;;4.65;3.72;;;24.10;36.40;;;;;;6081896;28;83465;-68
2021/03/26 14:10:32;;;;;;;5.78;3.75;;;24.10;36.50;;;;;;6103374;28;81637;-68
2021/03/26 14:13:32;;;;;;;5.28;3.33;;;24.10;37.00;;;;;;6092854;28;80304;-67
2021/03/26 14:16:33;;;;;;;5.80;3.75;;;24.10;37.20;;;;;;6108652;28;81418;-67
2021/03/26 14:19:33;;;;;;;4.68;3.88;;;24.10;37.20;;;;;;6110131;28;80636;-66
2021/03/26 14:22:37;;;;;;;4.35;3.55;;;24.10;38.20;;;;;;6106949;28;80373;-65
2021/03/26 14:25:37;;;;;;;6.18;4.35;;;24.20;38.40;;;;;;6106113;28;80739;-65
2021/03/26 14:28:38;;;;;;;6.03;4.40;;;24.20;38.90;;;;;;6087865;28;83181;-65
2021/03/26 14:31:39;;;;;;;5.38;4.15;;;24.30;39.60;;;;;;6090454;28;80861;-65
2021/03/26 14:34:39;;;;;;;6.65;4.57;;;24.30;40.50;;;;;;6106989;28;81317;-65
2021/03/26 14:37:40;;;;;;;6.00;4.55;;;24.30;41.00;;;;;;6105134;28;81326;-66
2021/03/26 14:40:41;;;;;;;7.63;5.03;;;24.30;41.30;;;;;;6086590;28;83332;-65
2021/03/26 14:43:41;;;;;;;5.90;4.30;;;24.20;41.10;;;;;;6102906;28;81102;-65
2021/03/26 14:46:42;;;;;;;5.95;4.75;;;24.30;40.50;;;;;;6105104;28;80462;-64
2021/03/26 14:49:42;;;;;;;7.28;5.05;;;24.30;40.00;;;;;;6097084;28;81947;-65
2021/03/26 14:52:43;;;;;;;6.88;5.35;;;24.30;39.90;;;;;;6108196;28;80545;-66
2021/03/26 14:55:43;;;;;;;5.60;4.80;;;24.30;39.60;;;;;;6105621;28;79989;-65
2021/03/26 14:58:44;;;;;;;5.68;4.80;;;24.30;39.60;;;;;;6105340;28;80743;-65
2021/03/26 15:01:45;;;;;;;7.05;4.60;;;24.30;39.50;;;;;;6106319;28;80639;-65
2021/03/26 15:04:45;;;;;;;5.35;4.10;;;24.30;39.40;;;;;;6085477;28;80589;-65
2021/03/26 15:07:46;;;;;;;5.60;4.32;;;24.20;39.10;;;;;;6107308;28;80704;-65
2021/03/26 15:10:46;;;;;;;6.82;4.78;;;24.20;39.00;;;;;;6084985;28;80736;-65
2021/03/26 15:13:47;;;;;;;4.45;3.65;;;24.20;39.40;;;;;;6106991;28;81061;-67
2021/03/26 15:16:49;;;;;;;7.22;4.85;;;24.30;38.90;;;;;;6106657;28;81398;-65
2021/03/26 15:19:49;;;;;;;7.10;4.22;;;24.20;39.00;;;;;;6103714;28;80659;-65
2021/03/26 15:22:50;;;;;;;467.95;140.57;;;24.30;39.10;;;;;;6106901;28;81472;-65
2021/03/26 15:25:50;;;;;;;773.05;291.73;;;24.30;39.30;;;;;;6097641;28;85391;-66
2021/03/26 15:28:51;;;;;;;813.88;301.77;;;24.30;39.30;;;;;;6098842;28;86260;-66
2021/03/26 15:31:52;;;;;;;736.20;273.65;;;24.30;38.70;;;;;;6101829;28;87566;-66